Time;durP1;ratioP1;P1;durP2;ratioP2;P2;SDS_P1;SDS_P2;PMS_P1;PMS_P2;Temp;Humidity;BMP_temperature;BMP_pressure;BME280_temperature;BME280_humidity;BME280_pressure;Samples;Min_cycle;Max_cycle;Signal;HPM_P1;HPM_P2
2021/06/23 08:17:41;;;;;;;723.92;679.03;;;15.30;99.90;;;;;;5070926;28;20509;-71
2021/06/23 08:20:08;;;;;;;768.25;719.97;;;15.30;99.90;;;;;;5070607;28;20172;-71
2021/06/23 08:22:34;;;;;;;798.88;748.05;;;15.40;99.90;;;;;;5069382;28;20706;-72
2021/06/23 08:25:00;;;;;;;829.83;776.45;;;15.50;99.90;;;;;;5070629;28;20246;-72
2021/06/23 08:27:25;;;;;;;843.85;789.50;;;15.50;99.90;;;;;;5070346;28;20172;-72
2021/06/23 08:29:51;;;;;;;874.22;816.58;;;15.60;99.90;;;;;;5070507;28;20525;-72
2021/06/23 08:32:17;;;;;;;918.70;856.47;;;15.70;99.90;;;;;;5070247;28;20160;-72
2021/06/23 08:34:42;;;;;;;926.38;863.35;;;15.80;99.90;;;;;;5070178;28;20196;-73
2021/06/23 08:37:08;;;;;;;975.47;905.83;;;15.80;99.90;;;;;;5070044;28;20555;-72
2021/06/23 08:39:34;;;;;;;992.45;921.20;;;15.80;99.90;;;;;;5070321;28;20169;-72
2021/06/23 08:41:59;;;;;;;990.65;919.47;;;15.80;99.90;;;;;;5070294;28;20522;-72
2021/06/23 08:44:25;;;;;;;1014.60;940.35;;;15.90;99.90;;;;;;5070156;28;20160;-72
2021/06/23 08:46:51;;;;;;;1008.28;933.60;;;15.90;99.90;;;;;;5070247;28;20168;-72
2021/06/23 08:49:17;;;;;;;1016.28;940.78;;;15.90;99.90;;;;;;5070102;28;20207;-72
2021/06/23 08:51:44;;;;;;;1009.20;935.03;;;15.80;99.90;;;;;;5068770;28;20172;-72
2021/06/23 08:54:10;;;;;;;1026.15;949.42;;;15.80;99.90;;;;;;5069795;28;20177;-72
2021/06/23 08:56:36;;;;;;;1051.82;967.63;;;15.80;99.90;;;;;;5069573;28;20267;-69
2021/06/23 08:59:03;;;;;;;1032.53;955.03;;;15.70;99.90;;;;;;5069932;28;20164;-68
2021/06/23 09:01:31;;;;;;;1010.15;935.80;;;15.70;99.90;;;;;;5069901;28;20161;-68
2021/06/23 09:04:06;;;;;;;1012.95;939.35;;;15.60;99.90;;;;;;5069750;28;20219;-68
2021/06/23 09:06:52;;;;;;;990.38;919.50;;;15.70;99.90;;;;;;5069742;28;20168;-68
2021/06/23 09:09:26;;;;;;;994.35;923.55;;;15.70;99.90;;;;;;5069693;28;20648;-68
2021/06/23 09:11:55;;;;;;;1000.15;927.95;;;15.70;99.90;;;;;;5069551;28;20171;-68
2021/06/23 09:14:22;;;;;;;1004.30;931.15;;;15.60;99.90;;;;;;5069367;28;20644;-68
2021/06/23 09:17:06;;;;;;;1010.65;936.55;;;15.80;99.90;;;;;;5069272;28;20252;-69
2021/06/23 09:19:39;;;;;;;1009.67;936.28;;;15.90;99.90;;;;;;5069412;28;20157;-69
2021/06/23 09:22:26;;;;;;;1052.72;972.53;;;16.00;99.90;;;;;;5069383;28;20176;-68
2021/06/23 09:24:52;;;;;;;1067.00;984.13;;;16.20;99.90;;;;;;5069130;28;20196;-67
2021/06/23 09:27:24;;;;;;;1113.00;999.90;;;16.30;99.90;;;;;;5065629;28;20634;-69
2021/06/23 09:29:53;;;;;;;1133.25;999.90;;;16.50;99.90;;;;;;5056113;28;20173;-69
2021/06/23 09:32:20;;;;;;;1160.43;999.90;;;16.60;99.90;;;;;;5055869;28;20195;-69
2021/06/23 09:34:49;;;;;;;1174.50;999.90;;;16.80;99.90;;;;;;5056005;28;20173;-69
2021/06/23 09:37:37;;;;;;;1213.20;999.90;;;16.80;99.90;;;;;;5055768;28;20196;-68
2021/06/23 09:40:13;;;;;;;1220.35;999.90;;;17.00;99.90;;;;;;5055787;28;20664;-70
2021/06/23 09:43:02;;;;;;;1261.85;999.90;;;17.10;99.90;;;;;;5055810;28;20168;-70
2021/06/23 09:45:31;;;;;;;1264.38;999.90;;;17.30;99.90;;;;;;5055785;28;20161;-68
2021/06/23 09:48:00;;;;;;;1298.18;999.90;;;17.30;99.90;;;;;;5055987;28;20705;-68
2021/06/23 09:50:28;;;;;;;1294.65;999.90;;;17.40;99.90;;;;;;5055693;28;20173;-70
2021/06/23 09:53:02;;;;;;;1311.78;999.90;;;17.30;99.90;;;;;;5054384;28;20196;-70
2021/06/23 09:55:42;;;;;;;1302.85;999.90;;;17.30;99.90;;;;;;5055444;28;20169;-71
2021/06/23 09:58:21;;;;;;;1288.40;999.90;;;17.30;99.90;;;;;;5055459;28;20642;-70
2021/06/23 10:00:58;;;;;;;1281.40;999.90;;;17.30;99.90;;;;;;5055488;28;20164;-70
2021/06/23 10:03:25;;;;;;;1265.70;999.90;;;17.20;99.90;;;;;;5055445;28;20237;-72
2021/06/23 10:05:51;;;;;;;1269.68;999.90;;;17.20;99.90;;;;;;5055450;28;20169;-72
2021/06/23 10:08:21;;;;;;;1280.07;999.90;;;17.20;99.90;;;;;;5055189;28;20161;-72
2021/06/23 10:10:47;;;;;;;1283.28;999.90;;;17.20;99.90;;;;;;5054018;28;20204;-72
2021/06/23 10:13:15;;;;;;;1279.90;999.90;;;17.30;99.90;;;;;;5055272;28;20204;-72
2021/06/23 10:15:41;;;;;;;1279.85;999.90;;;17.20;99.90;;;;;;5054882;28;20307;-72
2021/06/23 10:18:07;;;;;;;1312.43;999.90;;;17.20;99.90;;;;;;5055272;28;20505;-72
2021/06/23 10:20:33;;;;;;;1321.93;999.90;;;17.40;99.90;;;;;;5053813;28;20173;-72
2021/06/23 10:23:02;;;;;;;1317.15;999.90;;;17.50;99.90;;;;;;5053821;28;20165;-73
2021/06/23 10:25:30;;;;;;;1342.63;999.90;;;17.60;99.90;;;;;;5054531;28;20193;-72
2021/06/23 10:27:57;;;;;;;1364.78;999.90;;;17.70;99.90;;;;;;5054938;28;20252;-72
2021/06/23 10:30:29;;;;;;;1382.47;999.90;;;17.80;99.90;;;;;;5054995;28;20165;-72
2021/06/23 10:32:55;;;;;;;1403.53;999.90;;;18.10;99.90;;;;;;5055020;28;20180;-73
2021/06/23 10:35:21;;;;;;;1434.57;999.90;;;18.30;99.90;;;;;;5054821;28;20212;-69
2021/06/23 10:37:49;;;;;;;1401.97;999.90;;;18.50;99.90;;;;;;5054764;28;20188;-69
2021/06/23 10:40:16;;;;;;;1351.65;999.90;;;18.60;99.90;;;;;;5053799;28;20173;-69
2021/06/23 10:42:42;;;;;;;1411.60;999.90;;;18.60;99.90;;;;;;5053469;28;20663;-69
2021/06/23 10:45:09;;;;;;;1389.40;999.90;;;18.70;99.90;;;;;;5054691;28;20210;-69
2021/06/23 10:47:42;;;;;;;1419.20;999.90;;;18.70;99.90;;;;;;5054499;28;20207;-69
2021/06/23 10:50:17;;;;;;;1321.35;999.90;;;18.70;99.90;;;;;;5054527;28;20169;-69
2021/06/23 10:52:45;;;;;;;1479.30;999.90;;;18.80;99.90;;;;;;5054599;28;20590;-71
2021/06/23 10:55:13;;;;;;;1470.65;999.90;;;18.90;99.90;;;;;;5054477;28;20630;-71
2021/06/23 10:57:38;;;;;;;1356.57;999.90;;;19.00;99.90;;;;;;5053100;28;20176;-72
2021/06/23 11:00:27;;;;;;;1420.82;999.90;;;19.10;99.90;;;;;;5054358;28;20664;-71
2021/06/23 11:03:09;;;;;;;1392.78;999.90;;;19.30;99.90;;;;;;5054204;28;20157;-71
2021/06/23 11:05:49;;;;;;;1408.32;999.90;;;19.30;99.90;;;;;;5054071;28;20182;-71
2021/06/23 11:08:29;;;;;;;1454.18;999.90;;;19.30;99.90;;;;;;5052759;28;20172;-71
2021/06/23 11:11:00;;;;;;;1402.45;999.90;;;19.30;99.90;;;;;;5054136;28;20192;-71
2021/06/23 11:13:29;;;;;;;1455.68;999.90;;;19.50;99.90;;;;;;5054161;28;20434;-71
2021/06/23 11:15:55;;;;;;;1404.93;999.90;;;19.60;99.90;;;;;;5053759;28;20258;-71
2021/06/23 11:18:38;;;;;;;1442.78;999.90;;;19.60;99.90;;;;;;5053689;28;20165;-71
2021/06/23 11:21:06;;;;;;;1316.07;999.90;;;19.70;99.90;;;;;;5052686;28;20533;-71
2021/06/23 11:23:58;;;;;;;1362.28;999.90;;;19.70;99.90;;;;;;5053864;28;20664;-70
2021/06/23 11:26:24;;;;;;;1434.05;999.90;;;19.60;99.90;;;;;;5054054;28;20201;-71
2021/06/23 11:28:54;;;;;;;1446.00;999.90;;;19.60;99.90;;;;;;5053830;28;20176;-71
2021/06/23 11:31:21;;;;;;;1421.45;999.90;;;19.70;99.90;;;;;;5053758;28;20169;-70
2021/06/23 11:33:49;;;;;;;1459.07;999.90;;;19.80;99.90;;;;;;5053594;28;20584;-70
2021/06/23 11:36:18;;;;;;;1454.97;999.90;;;19.80;99.90;;;;;;5053604;28;20438;-70
2021/06/23 11:38:46;;;;;;;1415.38;999.90;;;19.90;99.90;;;;;;5053612;28;20260;-70
2021/06/23 11:41:12;;;;;;;1440.45;999.90;;;20.00;99.90;;;;;;5053586;28;20172;-70
2021/06/23 11:43:38;;;;;;;1513.80;999.90;;;20.00;99.90;;;;;;5053586;28;20168;-70
2021/06/23 11:46:04;;;;;;;1534.45;999.90;;;20.00;99.90;;;;;;5053410;28;20203;-70
2021/06/23 11:48:30;;;;;;;1431.55;999.90;;;20.10;99.90;;;;;;5053403;28;20160;-70
2021/06/23 11:50:55;;;;;;;1360.13;999.90;;;20.00;99.90;;;;;;5053228;28;20172;-70
2021/06/23 11:53:22;;;;;;;1339.38;999.90;;;20.00;99.90;;;;;;5053453;28;20165;-70
2021/06/23 11:55:50;;;;;;;1289.95;999.90;;;20.00;99.90;;;;;;5053370;28;20173;-71
2021/06/23 11:58:16;;;;;;;1397.70;999.90;;;19.90;99.90;;;;;;5053389;28;20165;-71
2021/06/23 12:00:43;;;;;;;1405.88;999.90;;;20.00;99.90;;;;;;5053201;28;20175;-71
2021/06/23 12:03:10;;;;;;;1376.53;999.90;;;20.20;99.90;;;;;;5053277;28;20200;-71
2021/06/23 12:05:37;;;;;;;1315.25;999.90;;;20.50;99.90;;;;;;5053193;28;20266;-70
2021/06/23 12:08:04;;;;;;;1270.90;999.90;;;20.50;99.90;;;;;;5053050;28;20176;-66
2021/06/23 12:10:30;;;;;;;1332.25;999.90;;;20.50;99.90;;;;;;5053209;28;20165;-70
2021/06/23 12:12:57;;;;;;;1317.22;999.90;;;20.50;99.90;;;;;;5053054;28;20641;-72
2021/06/23 12:15:24;;;;;;;1285.20;999.90;;;20.40;99.90;;;;;;5052929;28;20179;-71
2021/06/23 12:17:56;;;;;;;1337.18;999.90;;;20.30;99.90;;;;;;5053209;28;20179;-72
2021/06/23 12:20:23;;;;;;;1382.88;999.90;;;20.40;99.90;;;;;;5053080;28;20164;-71
2021/06/23 12:22:56;;;;;;;1420.72;999.90;;;20.50;99.90;;;;;;5053306;28;20164;-69
2021/06/23 12:25:24;;;;;;;1323.50;999.90;;;20.50;99.90;;;;;;5053135;28;20267;-69
2021/06/23 12:27:50;;;;;;;1274.53;999.90;;;20.70;99.90;;;;;;5053111;28;20558;-68
2021/06/23 12:30:17;;;;;;;1192.78;999.90;;;20.60;99.90;;;;;;5053022;28;20161;-69
2021/06/23 12:32:42;;;;;;;1305.22;999.90;;;20.40;99.90;;;;;;5053056;28;20164;-69
2021/06/23 12:35:08;;;;;;;1323.95;999.90;;;20.40;99.90;;;;;;5051778;28;20681;-69
2021/06/23 12:37:34;;;;;;;1274.70;999.90;;;20.50;99.90;;;;;;5052956;28;20565;-70
2021/06/23 12:40:00;;;;;;;1326.78;999.90;;;20.50;99.90;;;;;;5053067;28;20168;-69
2021/06/23 12:42:25;;;;;;;1364.65;999.90;;;20.70;99.90;;;;;;5052968;28;20206;-69
2021/06/23 12:44:51;;;;;;;1506.20;999.90;;;20.90;99.90;;;;;;5052929;28;20221;-68
2021/06/23 12:47:16;;;;;;;1307.70;999.90;;;21.10;99.90;;;;;;5052630;28;20287;-68
2021/06/23 12:49:42;;;;;;;1321.85;999.90;;;21.20;99.90;;;;;;5051621;28;20252;-69
2021/06/23 12:52:08;;;;;;;1309.00;999.90;;;21.20;99.90;;;;;;5051584;28;20168;-67
2021/06/23 12:54:34;;;;;;;1293.10;999.90;;;21.20;99.90;;;;;;5052844;28;20172;-65
2021/06/23 12:56:59;;;;;;;1268.50;999.90;;;21.10;99.90;;;;;;5052829;28;20172;-65
2021/06/23 12:59:30;;;;;;;1386.38;999.90;;;21.10;99.90;;;;;;5052577;28;20169;-68
2021/06/23 13:01:57;;;;;;;1325.82;999.90;;;21.00;99.90;;;;;;5052727;28;20214;-67
2021/06/23 13:04:23;;;;;;;1315.32;999.90;;;21.00;99.90;;;;;;5056228;28;20164;-67
2021/06/23 13:06:49;;;;;;;1246.75;999.90;;;21.00;99.90;;;;;;5056475;28;20306;-67
2021/06/23 13:09:14;;;;;;;1348.93;999.90;;;20.90;99.90;;;;;;5056449;28;20641;-68
2021/06/23 13:11:40;;;;;;;1309.20;999.90;;;20.90;99.90;;;;;;5056390;28;20290;-67
2021/06/23 13:14:06;;;;;;;1372.13;999.90;;;20.90;99.90;;;;;;5056380;28;20176;-67
2021/06/23 13:16:31;;;;;;;1310.97;999.90;;;20.90;99.90;;;;;;5056179;28;20586;-68
2021/06/23 13:18:57;;;;;;;1230.93;999.90;;;20.90;99.90;;;;;;5056315;28;20213;-68
2021/06/23 13:21:23;;;;;;;1242.13;999.90;;;20.80;99.90;;;;;;5056301;28;20165;-69
2021/06/23 13:23:49;;;;;;;1249.78;999.90;;;20.70;99.90;;;;;;5056261;28;20175;-68
2021/06/23 13:26:16;;;;;;;1242.15;999.90;;;20.70;99.90;;;;;;5056080;28;20195;-69
2021/06/23 13:28:42;;;;;;;1269.43;999.90;;;20.70;99.90;;;;;;5056097;28;20629;-69
2021/06/23 13:31:08;;;;;;;1298.65;999.90;;;20.80;99.90;;;;;;5056012;28;20176;-69
2021/06/23 13:33:33;;;;;;;1289.90;999.90;;;20.90;99.90;;;;;;5056007;28;20164;-68
2021/06/23 13:36:00;;;;;;;1251.38;999.90;;;20.90;99.90;;;;;;5054689;28;20173;-69
2021/06/23 13:38:27;;;;;;;1268.43;999.90;;;20.80;99.90;;;;;;5055921;28;20168;-69
2021/06/23 13:40:55;;;;;;;1280.72;999.90;;;20.80;99.90;;;;;;5055917;28;20168;-69
2021/06/23 13:43:21;;;;;;;1275.38;999.90;;;20.70;99.90;;;;;;5055804;28;20173;-69
2021/06/23 13:45:47;;;;;;;1306.30;999.90;;;20.80;99.90;;;;;;5054543;28;20208;-69
2021/06/23 13:48:13;;;;;;;1225.95;999.90;;;20.80;99.90;;;;;;5055763;28;20161;-69
2021/06/23 13:50:39;;;;;;;1296.30;999.90;;;20.80;99.90;;;;;;5055688;28;20683;-69
2021/06/23 13:53:05;;;;;;;1245.35;999.90;;;20.80;99.90;;;;;;5055583;28;20286;-68
2021/06/23 13:55:32;;;;;;;1257.93;999.90;;;20.90;99.90;;;;;;5054321;28;20206;-69
2021/06/23 13:57:59;;;;;;;1262.20;999.90;;;20.80;99.90;;;;;;5055564;28;20160;-69
2021/06/23 14:00:27;;;;;;;1277.47;999.90;;;20.90;99.90;;;;;;5055530;28;20489;-65
2021/06/23 14:02:52;;;;;;;1280.85;999.90;;;20.90;99.90;;;;;;5055260;28;20192;-65
2021/06/23 14:05:18;;;;;;;1269.07;999.90;;;20.90;99.90;;;;;;5055102;28;20276;-65
2021/06/23 14:07:44;;;;;;;1264.68;999.90;;;21.00;99.90;;;;;;5055095;28;20228;-65
2021/06/23 14:10:10;;;;;;;1208.85;999.90;;;21.10;99.90;;;;;;5055315;28;20247;-65
2021/06/23 14:12:36;;;;;;;1230.90;999.90;;;21.10;99.90;;;;;;5055099;28;20179;-65
2021/06/23 14:15:04;;;;;;;1246.00;999.90;;;21.10;99.90;;;;;;5055094;28;20169;-65
2021/06/23 14:17:30;;;;;;;1264.40;999.90;;;21.10;99.90;;;;;;5055085;28;20220;-65
2021/06/23 14:19:56;;;;;;;1143.70;999.90;;;21.10;99.90;;;;;;5055198;28;20196;-65
2021/06/23 14:22:22;;;;;;;1219.65;999.90;;;20.90;99.90;;;;;;5055180;28;20520;-65
2021/06/23 14:24:48;;;;;;;1232.32;999.90;;;20.90;99.90;;;;;;5053721;28;20194;-65
2021/06/23 14:27:13;;;;;;;1224.95;999.90;;;21.20;99.90;;;;;;5054924;28;20290;-65
2021/06/23 14:29:39;;;;;;;1220.10;999.90;;;21.30;99.90;;;;;;5055183;28;20160;-65
2021/06/23 14:32:05;;;;;;;1211.38;999.90;;;21.50;99.90;;;;;;5055136;28;20195;-65
2021/06/23 14:34:31;;;;;;;1223.75;999.90;;;21.50;99.90;;;;;;5054959;28;20188;-67
2021/06/23 14:36:57;;;;;;;1194.35;999.90;;;21.50;99.90;;;;;;5053279;28;20229;-68
2021/06/23 14:39:22;;;;;;;1223.30;999.90;;;21.50;99.90;;;;;;5053361;28;20633;-69
2021/06/23 14:41:48;;;;;;;1216.68;999.90;;;21.50;99.90;;;;;;5054740;28;20199;-71
2021/06/23 14:44:13;;;;;;;1208.55;999.90;;;21.40;99.90;;;;;;5054397;28;20511;-71
2021/06/23 14:46:39;;;;;;;1213.55;999.90;;;21.30;99.90;;;;;;5054753;28;20204;-71
2021/06/23 14:49:06;;;;;;;1179.30;999.90;;;21.20;99.90;;;;;;5054540;28;20180;-71
2021/06/23 14:51:32;;;;;;;1218.85;999.90;;;21.10;99.90;;;;;;5054578;28;20522;-70
2021/06/23 14:53:58;;;;;;;1259.15;999.90;;;21.10;99.90;;;;;;5054727;28;20247;-71
2021/06/23 14:56:24;;;;;;;1133.57;999.90;;;21.20;99.90;;;;;;5054764;28;20255;-69
2021/06/23 14:58:49;;;;;;;1174.72;999.90;;;21.10;99.90;;;;;;5054798;28;20200;-68
2021/06/23 15:01:15;;;;;;;1188.55;999.90;;;21.20;99.90;;;;;;5054716;28;20176;-67
2021/06/23 15:03:41;;;;;;;1229.28;999.90;;;21.10;99.90;;;;;;5054477;28;20172;-68
2021/06/23 15:06:08;;;;;;;1180.38;999.90;;;21.20;99.90;;;;;;5054060;28;20200;-68
2021/06/23 15:08:36;;;;;;;1218.78;999.90;;;21.20;99.90;;;;;;5054461;28;20164;-67
2021/06/23 15:11:03;;;;;;;1212.15;999.90;;;21.20;99.90;;;;;;5054370;28;20161;-68
2021/06/23 15:13:29;;;;;;;1216.50;999.90;;;21.20;99.90;;;;;;5054429;28;20219;-68
2021/06/23 15:15:54;;;;;;;1235.00;999.90;;;21.20;99.90;;;;;;5054213;28;20259;-70
2021/06/23 15:18:20;;;;;;;1248.20;999.90;;;21.20;99.90;;;;;;5053693;28;20188;-70
2021/06/23 15:20:46;;;;;;;1280.97;999.90;;;21.40;99.90;;;;;;5054236;28;20251;-70
2021/06/23 15:23:11;;;;;;;1183.00;999.90;;;21.60;99.90;;;;;;5054139;28;20184;-70
2021/06/23 15:25:37;;;;;;;1144.30;999.90;;;21.70;99.90;;;;;;5052662;28;20231;-70
2021/06/23 15:28:04;;;;;;;1248.35;999.90;;;21.70;99.90;;;;;;5054080;28;20187;-69
2021/06/23 15:30:30;;;;;;;1203.95;999.90;;;21.80;99.90;;;;;;5054244;28;20164;-71
2021/06/23 15:32:55;;;;;;;1247.13;999.90;;;22.00;99.90;;;;;;5054275;28;20168;-71
2021/06/23 15:35:21;;;;;;;1225.72;999.90;;;22.30;99.90;;;;;;5053957;28;20215;-71
2021/06/23 15:37:48;;;;;;;1129.15;999.90;;;22.60;99.90;;;;;;5053925;28;20251;-71
2021/06/23 15:40:14;;;;;;;1194.95;999.90;;;22.80;99.90;;;;;;5054015;28;20249;-71
2021/06/23 15:42:42;;;;;;;1125.78;999.90;;;23.00;99.90;;;;;;5054099;28;20173;-71
2021/06/23 15:45:09;;;;;;;1138.18;999.90;;;23.20;99.90;;;;;;5053965;28;20180;-71
2021/06/23 15:47:35;;;;;;;1017.00;940.42;;;23.30;99.90;;;;;;5053533;28;20257;-71
2021/06/23 15:50:01;;;;;;;1041.60;962.03;;;23.40;99.90;;;;;;5053901;28;20176;-71
2021/06/23 15:52:27;;;;;;;1068.55;984.35;;;23.30;99.90;;;;;;5053922;28;20152;-72
2021/06/23 15:54:53;;;;;;;1070.43;985.80;;;23.60;99.90;;;;;;5053619;28;20177;-70
2021/06/23 15:57:19;;;;;;;1213.88;999.90;;;23.70;99.90;;;;;;5052368;28;20523;-67
2021/06/23 15:59:45;;;;;;;1080.13;992.17;;;24.00;99.90;;;;;;5053462;28;20172;-67
2021/06/23 16:02:10;;;;;;;998.25;923.50;;;24.00;99.90;;;;;;5053551;28;20222;-67
2021/06/23 16:04:36;;;;;;;911.20;847.78;;;23.90;99.90;;;;;;5053594;28;20261;-68
2021/06/23 16:07:01;;;;;;;1088.55;997.00;;;23.70;99.90;;;;;;5053600;28;20196;-69
2021/06/23 16:09:27;;;;;;;1029.85;951.95;;;23.60;99.90;;;;;;5053501;28;20160;-69
2021/06/23 16:11:52;;;;;;;1007.72;932.78;;;23.40;99.90;;;;;;5053528;28;20161;-68
2021/06/23 16:14:18;;;;;;;1049.18;968.08;;;23.20;99.90;;;;;;5053595;28;20648;-68
2021/06/23 16:16:44;;;;;;;887.63;827.80;;;22.90;99.90;;;;;;5053265;28;20216;-72
2021/06/23 16:19:10;;;;;;;1004.38;930.85;;;22.70;99.90;;;;;;5053434;28;20652;-72
2021/06/23 16:21:37;;;;;;;1095.50;998.58;;;22.60;99.90;;;;;;5052385;28;20206;-72
2021/06/23 16:24:12;;;;;;;985.67;915.08;;;22.50;99.90;;;;;;5053340;28;20610;-68
2021/06/23 16:26:37;;;;;;;983.35;913.03;;;22.40;99.90;;;;;;5053371;28;20192;-65
2021/06/23 16:29:04;;;;;;;942.38;876.80;;;22.50;99.90;;;;;;5053286;28;20171;-65
2021/06/23 16:31:30;;;;;;;932.28;867.38;;;22.60;99.90;;;;;;5053154;28;20184;-65
2021/06/23 16:33:56;;;;;;;1026.53;949.97;;;22.70;99.90;;;;;;5053183;28;20192;-65
2021/06/23 16:36:21;;;;;;;891.45;832.03;;;22.80;99.90;;;;;;5052199;28;20172;-65
2021/06/23 16:38:47;;;;;;;911.15;848.97;;;22.70;99.90;;;;;;5056156;28;20180;-65
2021/06/23 16:41:13;;;;;;;859.65;803.55;;;22.70;99.90;;;;;;5057517;28;20165;-65
2021/06/23 16:43:39;;;;;;;908.15;846.60;;;22.80;99.90;;;;;;5057296;28;20217;-65
2021/06/23 16:46:05;;;;;;;892.42;832.97;;;22.90;99.90;;;;;;5057057;28;20204;-65
2021/06/23 16:48:31;;;;;;;952.20;885.45;;;22.90;99.90;;;;;;5057150;28;20643;-65
2021/06/23 16:50:56;;;;;;;857.47;801.47;;;23.10;99.90;;;;;;5057243;28;20357;-65
2021/06/23 16:53:22;;;;;;;976.28;906.38;;;23.20;99.90;;;;;;5056977;28;20175;-65
2021/06/23 16:55:54;;;;;;;979.03;909.20;;;23.20;99.90;;;;;;5056500;28;20188;-65
2021/06/23 16:58:30;;;;;;;973.58;905.15;;;23.40;99.90;;;;;;5057071;28;20503;-65
2021/06/23 17:00:58;;;;;;;918.60;855.20;;;23.50;99.90;;;;;;5056967;28;20515;-65
2021/06/23 17:03:25;;;;;;;893.03;833.00;;;23.50;99.90;;;;;;5056985;28;20179;-65
2021/06/23 17:05:51;;;;;;;926.47;863.63;;;23.50;99.90;;;;;;5056902;28;20168;-65
2021/06/23 17:08:17;;;;;;;939.17;874.70;;;23.30;99.90;;;;;;5056716;28;20644;-65
2021/06/23 17:10:42;;;;;;;943.58;877.83;;;23.20;99.90;;;;;;5056750;28;20168;-65
2021/06/23 17:13:12;;;;;;;897.53;836.30;;;23.20;99.90;;;;;;5056620;28;20243;-65
2021/06/23 17:15:40;;;;;;;998.30;926.15;;;23.10;99.90;;;;;;5056584;28;20307;-65
2021/06/23 17:18:06;;;;;;;940.50;875.40;;;23.10;99.90;;;;;;5056615;28;20180;-65
2021/06/23 17:20:33;;;;;;;918.08;856.53;;;23.20;99.90;;;;;;5056537;28;20164;-65
2021/06/23 17:22:59;;;;;;;919.80;857.72;;;23.20;99.90;;;;;;5056513;28;20518;-65
2021/06/23 17:25:25;;;;;;;954.30;887.40;;;23.10;99.90;;;;;;5055003;28;20176;-65
2021/06/23 17:27:50;;;;;;;874.35;816.38;;;23.10;99.90;;;;;;5056184;28;20192;-65
2021/06/23 17:30:17;;;;;;;954.20;887.70;;;23.00;99.90;;;;;;5056182;28;20176;-65
2021/06/23 17:32:43;;;;;;;920.22;856.88;;;23.00;99.90;;;;;;5056203;28;20251;-65
2021/06/23 17:35:09;;;;;;;925.47;862.75;;;23.00;99.90;;;;;;5056277;28;20256;-65
2021/06/23 17:37:35;;;;;;;963.50;896.03;;;23.00;99.90;;;;;;5056160;28;20199;-65
2021/06/23 17:40:01;;;;;;;989.30;918.10;;;23.00;99.90;;;;;;5054749;28;20235;-65
2021/06/23 17:42:27;;;;;;;1000.15;927.35;;;23.00;99.90;;;;;;5056156;28;20172;-65
2021/06/23 17:44:52;;;;;;;983.40;912.80;;;23.00;99.90;;;;;;5056051;28;20232;-65
2021/06/23 17:47:19;;;;;;;1060.13;978.83;;;22.90;99.90;;;;;;5055922;28;20226;-65
2021/06/23 17:49:45;;;;;;;977.20;907.40;;;22.90;99.90;;;;;;5055455;28;20172;-65
2021/06/23 17:52:10;;;;;;;1061.07;978.67;;;22.90;99.90;;;;;;5055793;28;20614;-65
2021/06/23 17:54:36;;;;;;;1066.60;985.60;;;22.90;99.90;;;;;;5055771;28;20180;-65
2021/06/23 17:57:02;;;;;;;1047.00;967.33;;;22.90;99.90;;;;;;5055792;28;20214;-65
2021/06/23 17:59:28;;;;;;;1023.20;946.97;;;22.80;99.90;;;;;;5055752;28;20206;-66
2021/06/23 18:01:54;;;;;;;1070.80;987.25;;;22.70;99.90;;;;;;5055471;28;20164;-65
2021/06/23 18:04:20;;;;;;;1023.83;947.03;;;22.70;99.90;;;;;;5055713;28;20199;-65
2021/06/23 18:06:45;;;;;;;1007.58;933.80;;;22.60;99.90;;;;;;5055720;28;20196;-65
2021/06/23 18:09:11;;;;;;;956.85;888.95;;;22.50;99.90;;;;;;5055745;28;20172;-65
2021/06/23 18:11:37;;;;;;;1029.43;951.47;;;22.40;99.90;;;;;;5055771;28;20171;-65
2021/06/23 18:14:02;;;;;;;1008.60;934.25;;;22.30;99.90;;;;;;5055465;28;20620;-64
2021/06/23 18:16:28;;;;;;;979.33;909.40;;;22.30;99.90;;;;;;5055120;28;20545;-65
2021/06/23 18:18:54;;;;;;;1032.88;954.08;;;22.20;99.90;;;;;;5055224;28;20200;-65
2021/06/23 18:21:20;;;;;;;1025.95;948.05;;;22.10;99.90;;;;;;5055219;28;20165;-65
2021/06/23 18:23:46;;;;;;;966.55;897.45;;;22.10;99.90;;;;;;5055100;28;20621;-65
2021/06/23 18:26:12;;;;;;;1007.13;931.65;;;22.00;99.90;;;;;;5055178;28;20203;-64
2021/06/23 18:28:38;;;;;;;992.10;919.22;;;21.90;99.90;;;;;;5055352;28;20168;-65
2021/06/23 18:31:04;;;;;;;1001.20;927.78;;;22.00;99.90;;;;;;5055080;28;20252;-65
2021/06/23 18:33:30;;;;;;;1030.35;952.47;;;21.90;99.90;;;;;;5055138;28;20546;-65
2021/06/23 18:35:55;;;;;;;1015.67;939.67;;;21.90;99.90;;;;;;5055278;28;20819;-65
2021/06/23 18:38:21;;;;;;;1057.28;974.88;;;21.80;99.90;;;;;;5054735;28;20173;-65
2021/06/23 18:40:47;;;;;;;1015.88;939.35;;;21.80;99.90;;;;;;5054734;28;20204;-65
2021/06/23 18:43:12;;;;;;;1077.70;991.75;;;21.70;99.90;;;;;;5054542;28;20160;-65
2021/06/23 18:45:38;;;;;;;1085.35;995.10;;;21.70;99.90;;;;;;5054432;28;20171;-65
2021/06/23 18:48:04;;;;;;;1106.97;999.90;;;21.70;99.90;;;;;;5054492;28;20164;-65
2021/06/23 18:50:31;;;;;;;1101.63;999.67;;;21.70;99.90;;;;;;5054510;28;20252;-65
2021/06/23 18:52:56;;;;;;;1066.28;982.17;;;21.70;99.90;;;;;;5054556;28;20191;-65
2021/06/23 18:58:08;;;;;;;1070.38;984.50;;;21.80;99.90;;;;;;5054700;28;20230;-65
2021/06/23 19:00:34;;;;;;;1095.88;999.00;;;21.70;99.90;;;;;;5053795;28;20168;-65
2021/06/23 19:02:59;;;;;;;1121.20;999.90;;;21.60;99.90;;;;;;5054545;28;20168;-65
2021/06/23 19:05:25;;;;;;;1087.82;995.65;;;21.50;99.90;;;;;;5054331;28;20200;-65
2021/06/23 19:07:52;;;;;;;1107.05;999.90;;;21.30;99.90;;;;;;5053106;28;20207;-65
2021/06/23 19:10:18;;;;;;;1087.18;996.92;;;21.20;99.90;;;;;;5054383;28;20672;-65
2021/06/23 19:12:44;;;;;;;1080.57;992.45;;;21.00;99.90;;;;;;5054380;28;20196;-64
2021/06/23 19:15:10;;;;;;;1132.80;999.90;;;20.80;99.90;;;;;;5054323;28;20172;-64
2021/06/23 19:17:36;;;;;;;1123.70;999.90;;;20.60;99.90;;;;;;5053924;28;20303;-65
2021/06/23 19:20:04;;;;;;;1117.30;999.90;;;20.40;99.90;;;;;;5054340;28;20668;-64
2021/06/23 19:22:30;;;;;;;1121.80;999.90;;;20.20;99.90;;;;;;5054089;28;20697;-65
2021/06/23 19:24:56;;;;;;;1137.43;999.90;;;20.10;99.90;;;;;;5052925;28;20174;-64
2021/06/23 19:27:21;;;;;;;1152.45;999.90;;;20.00;99.90;;;;;;5053964;28;20227;-64
2021/06/23 19:29:47;;;;;;;1168.70;999.90;;;19.80;99.90;;;;;;5054125;28;20164;-64
